Jacksonville International Airport
KJAX : now visible

Aeroporto :











RITROVATECI SU...

 
LOGIN :

Iscrizione | Disclaimer

   EN    FR    IT 

 









Sommario :    VFR   VFR Marginale   IFR   IFR Intensivo   IFR Molto Intensivo
Visibilità : 
Base nubi : 
>= 8 km
>= 3000ft
5 / 8 km
1000 / 3000 ft
1500m / 5 km
500 / 1000 ft
800 / 1500m
200 / 500 ft
< 800m
< 200 ft
Simboli :   Temporali  Nebbia  Neve Forte  Precipitazioni Forti  Vento > 20 kt







- Altitudine del aeroporto : 30 ft
- Codice IATA : JAX


KJAX - Jacksonville International

ULTIMO METAR :
  • 222156Z 11010KT 10SM CLR 25/06 A3012 RMK AO2 SLP199 T02500061

METARs OBSOLETI :
  • 222056Z 11011KT 10SM CLR 26/06 A3011 RMK AO2 SLP198 T02560061 56014
  • 221956Z 10009KT 10SM CLR 26/06 A3012 RMK AO2 SLP198 T02610061

TAF KJAX
Valido dal 22 a 18 ore il 23 a 18 ore UTC


221735Z 2218/2318 VRB02KT P6SM SKC
FM221900 11008KT P6SM SKC
FM230100 VRB02KT P6SM SKC
FM231400 15005KT P6SM SKC
FIR KZJX / America del Nord



MetMap, La meteo Aeronautica in un colpo d'occhio ! - Copyright ORBIFLY Dicembre 2007 - Disclaimer

ORBIFLY MET'MAP TEAM :

Programmazione e sviluppo : Alexandra Zaïnal
Concezione e sviluppo : Baudouin d'Aumeries
Co-Programmazione e sviluppo : Marc-Olivier Méhu
Supporto tecnico e logistico : Manuel Goepfert
Aiuto per la traduzione : Arnaldo La Scala

Contatto : metmap@orbifly.com




FONTI E CREDITI :

   NOAA       Earth
Advisory